createdAt,value
2019-03-22T00:01:06.796Z,25.20
2019-03-22T00:03:36.508Z,28.63
2019-03-22T00:06:06.280Z,28.03
2019-03-22T00:08:36.029Z,29.13
2019-03-22T00:11:06.220Z,32.23
2019-03-22T00:13:35.984Z,28.73
2019-03-22T00:16:05.748Z,27.73
2019-03-22T00:18:35.552Z,30.90
2019-03-22T00:21:05.271Z,26.93
2019-03-22T00:23:35.051Z,30.80
2019-03-22T00:26:04.843Z,29.00
2019-03-22T00:28:34.636Z,29.97
2019-03-22T00:31:04.393Z,27.03
2019-03-22T00:33:34.184Z,29.07
2019-03-22T00:36:03.941Z,26.40
2019-03-22T00:38:33.692Z,25.07
2019-03-22T00:41:03.466Z,25.37
2019-03-22T00:43:33.243Z,23.43
2019-03-22T00:46:02.989Z,26.30
2019-03-22T00:48:32.740Z,24.43
2019-03-22T00:51:02.486Z,31.93
2019-03-22T00:53:32.261Z,31.03
2019-03-22T00:56:02.091Z,29.53
2019-03-22T00:58:31.946Z,28.33
2019-03-22T01:01:01.766Z,27.33
2019-03-22T01:03:31.520Z,28.00
2019-03-22T01:06:01.271Z,28.77
2019-03-22T01:08:31.489Z,29.93
2019-03-22T01:11:01.220Z,29.77
2019-03-22T01:13:31.034Z,26.53
2019-03-22T01:16:00.895Z,20.50
2019-03-22T01:18:30.680Z,25.20
2019-03-22T01:21:00.422Z,25.50
2019-03-22T01:23:30.171Z,25.53
2019-03-22T01:25:59.931Z,30.93
2019-03-22T01:28:29.684Z,29.77
2019-03-22T01:30:59.436Z,26.47
2019-03-22T01:33:29.373Z,29.73
2019-03-22T01:35:59.135Z,27.30
2019-03-22T01:38:28.904Z,24.17
2019-03-22T01:40:58.643Z,25.67
2019-03-22T01:43:28.476Z,29.23
2019-03-22T01:45:58.323Z,27.67
2019-03-22T01:48:28.064Z,33.40
2019-03-22T01:50:57.781Z,32.43
2019-03-22T01:53:27.557Z,31.50
2019-03-22T01:55:57.299Z,32.37
2019-03-22T01:58:27.143Z,31.73
2019-03-22T02:00:56.964Z,32.40
2019-03-22T02:03:26.741Z,28.70
2019-03-22T02:05:56.493Z,32.93
2019-03-22T02:08:26.236Z,31.23
2019-03-22T02:10:56.020Z,31.13
2019-03-22T02:13:25.769Z,32.77
2019-03-22T02:15:55.509Z,30.57
2019-03-22T02:18:25.264Z,27.07
2019-03-22T02:20:55.057Z,30.57
2019-03-22T02:23:24.792Z,28.90
2019-03-22T02:25:54.573Z,28.33
2019-03-22T02:28:24.399Z,29.20
2019-03-22T02:30:54.153Z,25.97
2019-03-22T02:33:23.912Z,26.23
2019-03-22T02:35:53.689Z,29.87
2019-03-22T02:38:23.461Z,27.77
2019-03-22T02:40:53.432Z,26.20
2019-03-22T02:43:23.267Z,24.13
2019-03-22T02:45:53.049Z,21.83
2019-03-22T02:48:22.797Z,28.90
2019-03-22T02:50:55.885Z,27.27
2019-03-22T02:53:23.963Z,22.20
2019-03-22T02:55:53.867Z,26.13
2019-03-22T02:58:23.754Z,28.70
2019-03-22T03:00:53.500Z,24.57
2019-03-22T03:03:23.277Z,22.30
2019-03-22T03:05:53.024Z,23.80
2019-03-22T03:08:22.884Z,22.27
2019-03-22T03:10:52.683Z,29.77
2019-03-22T03:13:22.456Z,28.83
2019-03-22T03:15:52.217Z,26.17
2019-03-22T03:18:21.981Z,29.17
2019-03-22T03:20:51.780Z,25.03
2019-03-22T03:23:21.556Z,29.30
2019-03-22T03:25:51.296Z,28.60
2019-03-22T03:28:35.649Z,30.00
2019-03-22T03:30:52.491Z,30.17
2019-03-22T03:33:22.325Z,31.53
2019-03-22T03:35:52.105Z,31.53
2019-03-22T03:38:21.837Z,31.83
2019-03-22T03:40:51.643Z,32.53
2019-03-22T03:43:21.425Z,31.70
2019-03-22T03:45:51.204Z,34.07
2019-03-22T03:48:20.949Z,35.20
2019-03-22T03:50:50.693Z,33.93
2019-03-22T03:53:20.517Z,33.27
2019-03-22T03:55:50.308Z,35.30
2019-03-22T03:58:20.050Z,33.97
2019-03-22T04:00:49.760Z,36.30
2019-03-22T04:03:19.542Z,35.33
2019-03-22T04:05:49.274Z,34.43
2019-03-22T04:08:19.052Z,33.53
2019-03-22T04:10:48.900Z,35.37
2019-03-22T04:13:18.696Z,37.13
2019-03-22T04:15:48.434Z,33.53
2019-03-22T04:18:18.208Z,37.43
2019-03-22T04:20:47.965Z,39.60
2019-03-22T04:23:17.726Z,35.53
2019-03-22T04:25:47.481Z,35.40
2019-03-22T04:28:19.181Z,33.13
2019-03-22T04:30:49.077Z,37.67
2019-03-22T04:33:18.851Z,36.00
2019-03-22T04:35:48.683Z,37.17
2019-03-22T04:38:18.452Z,32.10
2019-03-22T04:40:48.225Z,32.17
2019-03-22T04:43:18.015Z,32.37
2019-03-22T04:45:48.164Z,38.87
2019-03-22T04:48:26.763Z,39.80
2019-03-22T04:51:00.423Z,40.03
2019-03-22T04:53:35.100Z,39.10
2019-03-22T04:56:09.016Z,38.87
2019-03-22T04:58:41.696Z,39.33
2019-03-22T05:01:13.629Z,37.13
2019-03-22T05:03:44.271Z,38.83
2019-03-22T05:06:15.952Z,38.40
2019-03-22T05:08:47.201Z,40.00
2019-03-22T05:11:17.458Z,39.23
2019-03-22T05:13:50.485Z,42.90
2019-03-22T05:16:22.894Z,41.37
2019-03-22T05:18:54.063Z,37.27
2019-03-22T05:21:27.210Z,33.73
2019-03-22T05:24:00.334Z,37.40
2019-03-22T05:26:31.872Z,33.93
2019-03-22T05:29:02.420Z,34.67
2019-03-22T05:32:09.902Z,37.07
2019-03-22T05:34:39.693Z,32.63
2019-03-22T05:37:09.637Z,29.57
2019-03-22T05:39:39.388Z,37.50
2019-03-22T05:42:09.177Z,36.37
2019-03-22T05:44:38.965Z,34.77
2019-03-22T05:47:08.727Z,34.50
2019-03-22T05:49:38.528Z,32.30
2019-03-22T05:52:08.408Z,34.07
2019-03-22T05:54:38.176Z,36.63
2019-03-22T05:57:13.138Z,32.00
2019-03-22T05:59:42.874Z,33.83
2019-03-22T06:02:10.996Z,34.63
2019-03-22T06:04:40.775Z,34.07
2019-03-22T06:07:10.559Z,35.50
2019-03-22T06:09:40.411Z,36.67
2019-03-22T06:12:10.206Z,35.43
2019-03-22T06:14:39.985Z,32.70
2019-03-22T06:17:09.735Z,31.60
2019-03-22T06:19:39.574Z,33.10
2019-03-22T06:22:09.356Z,31.93
2019-03-22T06:24:39.116Z,33.73
2019-03-22T06:27:08.878Z,34.40
2019-03-22T06:29:38.721Z,34.00
2019-03-22T06:32:08.576Z,31.53
2019-03-22T06:34:38.344Z,37.07
2019-03-22T06:37:08.123Z,38.37
2019-03-22T06:39:37.871Z,35.33
2019-03-22T06:42:07.769Z,35.33
2019-03-22T06:44:37.652Z,35.73
2019-03-22T06:47:07.444Z,32.33
2019-03-22T06:49:37.202Z,33.10
2019-03-22T06:52:06.928Z,36.00
2019-03-22T06:54:36.731Z,33.57
2019-03-22T06:57:06.499Z,36.53
2019-03-22T06:59:36.259Z,38.90
2019-03-22T07:02:05.984Z,37.00
2019-03-22T07:04:35.831Z,34.03
2019-03-22T07:07:05.659Z,34.87
2019-03-22T07:09:35.472Z,35.47
2019-03-22T07:12:05.332Z,35.03
2019-03-22T07:14:35.086Z,32.70
2019-03-22T07:17:04.967Z,34.00
2019-03-22T07:19:34.980Z,36.67
2019-03-22T07:22:04.912Z,34.13
2019-03-22T07:24:34.676Z,36.07
2019-03-22T07:27:04.568Z,33.93
2019-03-22T07:29:34.369Z,33.53
2019-03-22T07:32:04.161Z,37.13
2019-03-22T07:34:33.944Z,35.93
2019-03-22T07:37:03.716Z,36.53
2019-03-22T07:39:33.516Z,30.03
2019-03-22T07:42:03.287Z,35.50
2019-03-22T07:44:33.039Z,34.00
2019-03-22T07:47:02.816Z,33.40
2019-03-22T07:49:32.633Z,38.37
2019-03-22T07:52:02.420Z,36.67
2019-03-22T07:54:32.211Z,36.23
2019-03-22T07:57:01.948Z,39.00
2019-03-22T07:59:31.723Z,34.83
2019-03-22T08:02:01.508Z,40.40
2019-03-22T08:04:31.284Z,36.97
2019-03-22T08:07:01.398Z,36.97
2019-03-22T08:09:31.347Z,35.87
2019-03-22T08:12:01.403Z,37.93
2019-03-22T08:14:31.178Z,37.00
2019-03-22T08:17:00.970Z,42.20
2019-03-22T08:19:30.732Z,35.07
2019-03-22T08:22:00.528Z,44.50
2019-03-22T08:24:30.292Z,36.00
2019-03-22T08:27:00.092Z,33.63
2019-03-22T08:29:29.858Z,36.37
2019-03-22T08:31:59.736Z,37.07
2019-03-22T08:34:29.493Z,35.50
2019-03-22T08:36:59.287Z,43.03
2019-03-22T08:39:29.030Z,39.60
2019-03-22T08:41:59.431Z,43.53
2019-03-22T08:44:29.176Z,44.53
2019-03-22T08:46:58.942Z,33.63
2019-03-22T08:49:28.794Z,38.03
2019-03-22T08:51:58.533Z,41.57
2019-03-22T08:54:28.308Z,37.53
2019-03-22T08:56:58.085Z,39.00
2019-03-22T08:59:27.846Z,40.00
2019-03-22T09:01:57.612Z,41.77
2019-03-22T09:04:27.333Z,39.33
2019-03-22T09:06:59.063Z,40.17
2019-03-22T09:09:40.699Z,41.43
2019-03-22T09:11:59.884Z,38.63
2019-03-22T09:14:29.703Z,36.50
2019-03-22T09:16:59.530Z,40.57
2019-03-22T09:19:29.354Z,38.33
2019-03-22T09:21:59.774Z,37.67
2019-03-22T09:24:38.957Z,32.73
2019-03-22T09:27:01.935Z,39.57
2019-03-22T09:29:31.847Z,38.57
2019-03-22T09:32:01.687Z,37.07
2019-03-22T09:34:34.003Z,38.30
2019-03-22T09:37:02.933Z,38.67
2019-03-22T09:39:32.818Z,34.97
2019-03-22T09:42:02.616Z,38.37
2019-03-22T09:44:42.803Z,42.57
2019-03-22T09:47:04.079Z,39.00
2019-03-22T09:49:33.860Z,38.63
2019-03-22T09:52:03.847Z,40.23
2019-03-22T09:54:33.615Z,39.70
2019-03-22T09:57:03.509Z,40.53
2019-03-22T09:59:33.290Z,37.83
2019-03-22T10:02:03.308Z,39.47
2019-03-22T10:04:33.162Z,38.37
2019-03-22T10:07:03.044Z,40.87
2019-03-22T10:09:32.945Z,37.37
2019-03-22T10:12:02.947Z,39.00
2019-03-22T10:14:32.680Z,38.47
2019-03-22T10:17:02.506Z,40.00
2019-03-22T10:19:32.200Z,41.53
2019-03-22T10:22:02.099Z,40.67
2019-03-22T10:24:31.886Z,40.57
2019-03-22T10:27:01.807Z,40.30
2019-03-22T10:29:33.455Z,38.70
2019-03-22T10:32:03.247Z,40.93
2019-03-22T10:34:32.943Z,40.30
2019-03-22T10:37:02.697Z,40.97
2019-03-22T10:39:32.489Z,38.03
2019-03-22T10:42:02.239Z,40.10
2019-03-22T10:44:32.066Z,39.70
2019-03-22T10:47:01.845Z,39.37
2019-03-22T10:49:31.655Z,38.97
2019-03-22T10:52:04.440Z,38.63
2019-03-22T10:54:33.035Z,37.77
2019-03-22T10:57:02.845Z,38.17
2019-03-22T10:59:32.602Z,36.90
2019-03-22T11:02:03.842Z,37.60
2019-03-22T11:04:33.813Z,37.90
2019-03-22T11:07:03.600Z,38.53
2019-03-22T11:09:33.390Z,37.33
2019-03-22T11:12:11.884Z,39.37
2019-03-22T11:14:34.631Z,38.97
2019-03-22T11:17:04.440Z,39.73
2019-03-22T11:19:34.264Z,39.70
2019-03-22T11:22:03.997Z,38.43
2019-03-22T11:24:33.759Z,39.80
2019-03-22T11:27:03.584Z,39.90
2019-03-22T11:29:33.328Z,40.40
2019-03-22T11:32:12.087Z,40.00
2019-03-22T11:34:34.499Z,42.03
2019-03-22T11:37:04.388Z,41.17
2019-03-22T11:39:34.142Z,42.10
2019-03-22T11:42:03.911Z,40.67
2019-03-22T11:44:33.689Z,37.23
2019-03-22T11:47:03.416Z,40.67
2019-03-22T11:49:33.201Z,41.33
2019-03-22T11:52:02.963Z,43.63
2019-03-22T11:54:32.792Z,40.77
2019-03-22T11:57:02.612Z,43.23
2019-03-22T11:59:32.404Z,43.73
2019-03-22T12:02:02.150Z,40.20
2019-03-22T12:04:31.876Z,42.43
2019-03-22T12:07:01.658Z,42.13
2019-03-22T12:09:31.399Z,39.13
2019-03-22T12:12:01.176Z,37.80
2019-03-22T12:14:30.996Z,40.33
2019-03-22T12:17:00.801Z,41.33
2019-03-22T12:19:30.549Z,41.50
2019-03-22T12:22:00.320Z,43.07
2019-03-22T12:24:30.097Z,41.57
2019-03-22T12:26:59.853Z,43.10
2019-03-22T12:29:29.768Z,39.17
2019-03-22T12:31:59.616Z,39.37
2019-03-22T12:34:29.424Z,38.47
2019-03-22T12:36:59.157Z,36.27
2019-03-22T12:39:28.892Z,36.13
2019-03-22T12:41:58.779Z,35.50
2019-03-22T12:44:28.631Z,37.27
2019-03-22T12:46:58.387Z,35.30
2019-03-22T12:49:28.336Z,32.97
2019-03-22T12:51:58.096Z,34.70
2019-03-22T12:54:28.100Z,34.93
2019-03-22T12:56:57.937Z,35.30
2019-03-22T12:59:27.687Z,37.40
2019-03-22T13:01:57.495Z,36.23
2019-03-22T13:04:27.253Z,35.28
2019-03-22T13:06:57.080Z,37.13
2019-03-22T13:09:26.872Z,34.55
2019-03-22T13:11:56.915Z,32.95
2019-03-22T13:14:26.801Z,33.33
2019-03-22T13:16:56.753Z,33.50
2019-03-22T13:19:26.531Z,34.38
2019-03-22T13:21:56.323Z,33.88
2019-03-22T13:24:26.103Z,32.70
2019-03-22T13:26:56.885Z,33.60
2019-03-22T13:29:26.671Z,35.08
2019-03-22T13:31:56.484Z,34.27
2019-03-22T13:34:26.333Z,34.35
2019-03-22T13:36:56.120Z,33.42
2019-03-22T13:39:26.621Z,31.50
2019-03-22T13:41:56.484Z,30.92
2019-03-22T13:44:26.346Z,32.40
2019-03-22T13:46:56.148Z,31.33
2019-03-22T13:49:26.017Z,28.00
2019-03-22T13:51:55.832Z,27.67
2019-03-22T13:54:25.564Z,29.67
2019-03-22T13:56:55.356Z,31.07
2019-03-22T13:59:25.121Z,32.25
2019-03-22T14:01:54.930Z,33.25
2019-03-22T14:04:25.029Z,30.02
2019-03-22T14:06:54.785Z,30.25
2019-03-22T14:09:24.524Z,31.77
2019-03-22T14:11:54.272Z,31.45
2019-03-22T14:14:24.016Z,27.48
2019-03-22T14:16:54.093Z,25.23
2019-03-22T14:19:24.038Z,26.17
2019-03-22T14:21:53.767Z,28.00
2019-03-22T14:24:23.512Z,26.47
2019-03-22T14:26:53.291Z,29.50
2019-03-22T14:29:23.072Z,29.10
2019-03-22T14:31:52.831Z,25.87
2019-03-22T14:34:22.590Z,26.93
2019-03-22T14:36:52.331Z,27.43
2019-03-22T14:39:22.109Z,27.40
2019-03-22T14:41:51.951Z,24.27
2019-03-22T14:44:25.538Z,26.33
2019-03-22T14:46:54.701Z,25.97
2019-03-22T14:49:24.681Z,26.10
2019-03-22T14:51:54.601Z,25.87
2019-03-22T14:54:24.821Z,28.13
2019-03-22T14:56:55.333Z,24.97
2019-03-22T14:59:25.529Z,26.03
2019-03-22T15:01:55.340Z,24.00
2019-03-22T15:04:25.101Z,25.80
2019-03-22T15:06:54.869Z,26.10
2019-03-22T15:09:24.659Z,22.40
2019-03-22T15:11:54.389Z,23.33
2019-03-22T15:14:41.928Z,24.57
2019-03-22T15:17:35.372Z,21.30
2019-03-22T15:20:18.224Z,22.00
2019-03-22T15:23:06.005Z,23.60
2019-03-22T15:25:54.825Z,23.63
2019-03-22T15:28:42.374Z,19.93
2019-03-22T15:31:30.919Z,23.73
2019-03-22T15:34:12.171Z,21.73
2019-03-22T15:36:59.946Z,20.52
2019-03-22T15:39:48.733Z,22.98
2019-03-22T15:42:18.476Z,21.30
2019-03-22T15:44:48.284Z,21.45
2019-03-22T15:47:18.154Z,23.63
2019-03-22T15:49:48.159Z,23.87
2019-03-22T15:52:17.929Z,22.90
2019-03-22T15:54:47.761Z,22.63
2019-03-22T15:57:17.607Z,23.00
2019-03-22T15:59:47.346Z,21.37
2019-03-22T16:02:17.116Z,22.90
2019-03-22T16:04:46.990Z,23.77
2019-03-22T16:07:16.766Z,23.47
2019-03-22T16:09:46.601Z,23.40
2019-03-22T16:12:16.460Z,23.27
2019-03-22T16:14:46.215Z,23.70
2019-03-22T16:17:15.957Z,21.53
2019-03-22T16:19:45.957Z,22.83
2019-03-22T16:22:15.700Z,20.60
2019-03-22T16:24:45.476Z,20.27
2019-03-22T16:27:15.297Z,22.10
2019-03-22T16:29:45.081Z,20.40
2019-03-22T16:32:14.829Z,21.47
2019-03-22T16:34:44.588Z,21.17
2019-03-22T16:37:14.359Z,20.87
2019-03-22T16:39:44.273Z,19.53
2019-03-22T16:42:14.065Z,19.67
2019-03-22T16:44:43.906Z,19.73
2019-03-22T16:47:13.704Z,19.67
2019-03-22T16:49:43.444Z,20.87
2019-03-22T16:52:13.611Z,19.80
2019-03-22T16:54:43.443Z,19.67
2019-03-22T16:57:13.242Z,18.47
2019-03-22T16:59:42.976Z,20.40
2019-03-22T17:02:12.869Z,17.93
2019-03-22T17:04:42.639Z,19.37
2019-03-22T17:07:12.434Z,21.40
2019-03-22T17:09:42.252Z,20.63
2019-03-22T17:12:12.209Z,20.13
2019-03-22T17:14:41.961Z,21.57
2019-03-22T17:17:11.814Z,21.17
2019-03-22T17:19:41.751Z,20.47
2019-03-22T17:22:11.646Z,20.93
2019-03-22T17:24:41.416Z,20.63
2019-03-22T17:27:11.264Z,20.53
2019-03-22T17:29:41.051Z,19.20
2019-03-22T17:32:10.830Z,18.60
2019-03-22T17:34:40.587Z,19.30
2019-03-22T17:37:10.367Z,18.37
2019-03-22T17:39:40.112Z,19.23
2019-03-22T17:42:09.892Z,20.30
2019-03-22T17:44:39.680Z,19.53
2019-03-22T17:47:09.491Z,18.87
2019-03-22T17:49:47.840Z,18.60
2019-03-22T17:52:10.684Z,19.03
2019-03-22T17:54:40.466Z,19.20
2019-03-22T17:57:18.365Z,17.80
2019-03-22T17:59:41.736Z,19.70
2019-03-22T18:02:11.600Z,18.17
2019-03-22T18:04:41.345Z,15.80
2019-03-22T18:07:11.165Z,18.80
2019-03-22T18:09:40.901Z,17.03
2019-03-22T18:12:10.783Z,18.67
2019-03-22T18:14:40.530Z,15.40
2019-03-22T18:17:10.344Z,14.40
2019-03-22T18:19:40.084Z,15.20
2019-03-22T18:22:09.848Z,15.73
2019-03-22T18:24:39.641Z,14.70
2019-03-22T18:27:09.413Z,14.37
2019-03-22T18:29:39.170Z,14.73
2019-03-22T18:32:08.955Z,16.40
2019-03-22T18:34:38.656Z,16.87
2019-03-22T18:37:08.434Z,15.40
2019-03-22T18:39:38.180Z,17.30
2019-03-22T18:42:07.971Z,19.07
2019-03-22T18:44:37.733Z,16.90
2019-03-22T18:47:07.591Z,18.27
2019-03-22T18:49:37.373Z,20.20
2019-03-22T18:52:08.207Z,19.30
2019-03-22T18:54:38.142Z,18.43
2019-03-22T18:57:07.922Z,18.90
2019-03-22T18:59:37.676Z,18.37
2019-03-22T19:02:07.460Z,18.47
2019-03-22T19:04:43.924Z,16.77
2019-03-22T19:07:08.705Z,19.73
2019-03-22T19:09:38.529Z,19.83
2019-03-22T19:12:08.266Z,19.50
2019-03-22T19:14:38.027Z,17.03
2019-03-22T19:17:07.779Z,17.17
2019-03-22T19:19:37.556Z,18.87
2019-03-22T19:22:07.305Z,20.40
2019-03-22T19:24:37.057Z,19.50
2019-03-22T19:27:06.806Z,20.73
2019-03-22T19:29:36.567Z,19.83
2019-03-22T19:32:13.321Z,20.00
2019-03-22T19:34:37.741Z,21.77
2019-03-22T19:37:07.504Z,18.83
2019-03-22T19:39:37.258Z,19.30
2019-03-22T19:42:07.478Z,20.20
2019-03-22T19:44:37.216Z,24.47
2019-03-22T19:47:06.979Z,24.40
2019-03-22T19:49:36.739Z,20.20
2019-03-22T19:52:06.472Z,22.00
2019-03-22T19:54:36.264Z,22.40
2019-03-22T19:57:05.999Z,23.37
2019-03-22T19:59:35.731Z,21.33
2019-03-22T20:02:05.505Z,27.43
2019-03-22T20:04:35.312Z,24.30
2019-03-22T20:07:05.105Z,24.00
2019-03-22T20:09:34.839Z,24.33
2019-03-22T20:12:04.844Z,21.00
2019-03-22T20:14:34.604Z,27.03
2019-03-22T20:17:04.364Z,24.67
2019-03-22T20:19:34.113Z,21.47
2019-03-22T20:22:03.848Z,25.30
2019-03-22T20:24:33.696Z,23.87
2019-03-22T20:27:03.442Z,27.87
2019-03-22T20:29:33.221Z,26.10
2019-03-22T20:32:02.949Z,27.93
2019-03-22T20:34:32.712Z,27.17
2019-03-22T20:37:02.506Z,27.87
2019-03-22T20:39:32.292Z,28.40
2019-03-22T20:42:02.045Z,27.57
2019-03-22T20:44:34.085Z,26.43
2019-03-22T20:47:03.363Z,26.90
2019-03-22T20:49:33.177Z,28.00
2019-03-22T20:52:03.004Z,28.93
2019-03-22T20:54:32.808Z,28.83
2019-03-22T20:57:02.600Z,34.03
2019-03-22T20:59:32.368Z,28.43
2019-03-22T21:02:02.188Z,28.70
2019-03-22T21:04:31.922Z,40.47
2019-03-22T21:07:01.773Z,56.10
2019-03-22T21:09:31.508Z,33.73
2019-03-22T21:12:03.732Z,31.20
2019-03-22T21:14:33.543Z,37.90
2019-03-22T21:17:03.392Z,35.93
2019-03-22T21:19:33.144Z,37.67
2019-03-22T21:22:02.918Z,39.63
2019-03-22T21:24:32.683Z,37.00
2019-03-22T21:27:02.498Z,30.13
2019-03-22T21:29:32.346Z,29.73
2019-03-22T21:32:02.093Z,31.67
2019-03-22T21:34:31.868Z,32.00
2019-03-22T21:37:01.614Z,35.80
2019-03-22T21:39:31.401Z,28.30
2019-03-22T21:42:01.121Z,31.83
2019-03-22T21:44:30.880Z,36.43
2019-03-22T21:47:00.640Z,32.73
2019-03-22T21:49:30.424Z,35.43
2019-03-22T21:52:00.153Z,37.83
2019-03-22T21:54:29.931Z,31.40
2019-03-22T21:56:59.672Z,40.43
2019-03-22T21:59:29.427Z,41.17
2019-03-22T22:01:59.306Z,36.80
2019-03-22T22:04:29.095Z,31.87
2019-03-22T22:06:58.896Z,40.13
2019-03-22T22:09:28.708Z,40.57
2019-03-22T22:11:58.541Z,42.20
2019-03-22T22:14:28.364Z,41.00
2019-03-22T22:16:58.222Z,41.97
2019-03-22T22:19:28.014Z,38.13
2019-03-22T22:21:57.740Z,41.00
2019-03-22T22:24:27.494Z,41.50
2019-03-22T22:26:57.343Z,40.90
2019-03-22T22:29:27.041Z,40.30
2019-03-22T22:31:56.879Z,40.43
2019-03-22T22:34:26.638Z,41.63
2019-03-22T22:36:56.380Z,41.73
2019-03-22T22:39:26.191Z,40.47
2019-03-22T22:41:55.968Z,41.57
2019-03-22T22:44:25.757Z,41.10
2019-03-22T22:46:55.483Z,41.63
2019-03-22T22:49:25.230Z,39.80
2019-03-22T22:51:54.992Z,39.73
2019-03-22T22:54:24.731Z,39.90
2019-03-22T22:56:54.770Z,40.07
2019-03-22T22:59:24.482Z,39.33
2019-03-22T23:01:54.452Z,40.73
2019-03-22T23:04:24.279Z,39.63
2019-03-22T23:06:54.031Z,40.30
2019-03-22T23:09:29.836Z,40.57
2019-03-22T23:11:59.620Z,40.57
2019-03-22T23:14:29.380Z,40.57
2019-03-22T23:16:59.124Z,41.27
2019-03-22T23:19:28.892Z,42.27
2019-03-22T23:21:58.717Z,41.80
2019-03-22T23:24:28.657Z,41.57
2019-03-22T23:26:58.438Z,40.50
2019-03-22T23:29:28.186Z,41.27
2019-03-22T23:31:57.953Z,40.80
2019-03-22T23:34:27.732Z,42.57
2019-03-22T23:36:57.494Z,41.07
2019-03-22T23:39:27.265Z,41.67
2019-03-22T23:41:57.047Z,41.27
2019-03-22T23:44:26.967Z,40.37
2019-03-22T23:46:56.724Z,41.50
2019-03-22T23:49:26.539Z,42.40
2019-03-22T23:51:56.306Z,42.37
2019-03-22T23:54:26.052Z,40.27
2019-03-22T23:56:55.812Z,39.10
2019-03-22T23:59:25.613Z,41.67
